Time;durP1;ratioP1;P1;durP2;ratioP2;P2;SDS_P1;SDS_P2;PMS_P1;PMS_P2;Temp;Humidity;BMP_temperature;BMP_pressure;BME280_temperature;BME280_humidity;BME280_pressure;Samples;Min_cycle;Max_cycle;Signal;HPM_P1;HPM_P2
2022/05/01 00:00:55;;;;;;;2.50;1.83;;;;;;;9.68;68.66;101155.91;5050138;28;20175;-72
2022/05/01 00:03:36;;;;;;;2.33;2.13;;;;;;;9.62;68.54;101146.94;5050345;28;20629;-72
2022/05/01 00:06:07;;;;;;;4.73;1.87;;;;;;;9.62;68.36;101148.88;5050106;28;20190;-72
2022/05/01 00:08:34;;;;;;;3.67;1.87;;;;;;;9.57;68.30;101154.38;5050097;28;20635;-72
2022/05/01 00:11:00;;;;;;;1.70;1.60;;;;;;;9.72;68.74;101144.13;5050082;28;20211;-73
2022/05/01 00:13:26;;;;;;;2.67;2.47;;;;;;;9.74;69.10;101149.31;5049916;28;20206;-73
2022/05/01 00:15:52;;;;;;;1.50;1.40;;;;;;;9.76;69.79;101147.91;5049932;28;20234;-72
2022/05/01 00:18:18;;;;;;;1.80;1.70;;;;;;;9.65;68.51;101142.84;5032044;28;20210;-72
2022/05/01 00:20:44;;;;;;;3.33;1.93;;;;;;;9.54;68.21;101142.91;5054316;28;20175;-72
2022/05/01 00:23:10;;;;;;;2.87;1.67;;;;;;;9.61;69.31;101139.88;5054004;28;20175;-73
2022/05/01 00:25:38;;;;;;;3.60;1.87;;;;;;;9.64;69.30;101146.66;5054029;28;20175;-72
2022/05/01 00:28:04;;;;;;;2.13;1.80;;;;;;;9.40;67.93;101143.88;5053560;28;20175;-74
2022/05/01 00:30:30;;;;;;;7.23;2.27;;;;;;;9.57;68.51;101147.00;5053726;28;20171;-72
2022/05/01 00:38:24;;;;;;;1.87;1.70;;;;;;;9.66;68.49;101148.00;5053508;28;20229;-73
2022/05/01 00:40:50;;;;;;;1.70;1.60;;;;;;;9.41;67.45;101148.25;5053554;28;20725;-72
2022/05/01 00:43:16;;;;;;;2.47;1.80;;;;;;;9.36;67.67;101145.56;5053565;28;20179;-73
2022/05/01 00:45:41;;;;;;;1.50;1.40;;;;;;;9.49;68.76;101156.63;5053546;28;20579;-72
2022/05/01 00:48:07;;;;;;;1.60;1.50;;;;;;;9.54;68.57;101151.09;5053357;28;20737;-72
2022/05/01 00:50:32;;;;;;;2.87;1.90;;;;;;;9.53;68.57;101154.94;5053468;28;20175;-72
2022/05/01 00:52:58;;;;;;;2.33;1.90;;;;;;;9.62;67.96;101152.41;5053439;28;20217;-72
2022/05/01 00:55:25;;;;;;;2.30;2.10;;;;;;;9.64;68.22;101152.94;5053602;28;20213;-72
2022/05/01 00:57:50;;;;;;;1.80;1.70;;;;;;;9.62;68.09;101154.31;5053322;28;20171;-73
2022/05/01 01:00:18;;;;;;;2.50;1.70;;;;;;;9.60;68.33;101153.81;5053185;28;20167;-73
2022/05/01 01:02:44;;;;;;;1.50;1.40;;;;;;;9.56;68.55;101153.56;5053248;28;20171;-73
2022/05/01 01:05:10;;;;;;;2.00;1.80;;;;;;;9.57;68.50;101140.75;5053179;28;20270;-72
2022/05/01 01:07:35;;;;;;;3.03;1.87;;;;;;;9.43;68.12;101135.97;5052948;28;20171;-72
2022/05/01 01:10:01;;;;;;;1.73;1.57;;;;;;;9.56;69.08;101137.22;5053482;28;20225;-73
2022/05/01 01:15:11;;;;;;;1.80;1.70;;;;;;;9.54;68.61;101134.75;5053410;28;20752;-73
2022/05/01 01:17:40;;;;;;;4.47;1.83;;;;;;;9.54;69.02;101137.47;5052722;28;20254;-73
2022/05/01 01:20:11;;;;;;;2.50;1.97;;;;;;;9.56;69.33;101139.94;5052894;28;20171;-73
2022/05/01 01:22:41;;;;;;;2.73;1.90;;;;;;;9.57;69.40;101148.94;5052773;28;20255;-73
2022/05/01 01:25:10;;;;;;;1.63;1.53;;;;;;;9.60;68.94;101159.25;5052719;28;20650;-73
2022/05/01 01:27:36;;;;;;;2.50;1.83;;;;;;;9.60;69.01;101146.44;5052588;28;20183;-73
2022/05/01 01:32:49;;;;;;;4.50;1.90;;;;;;;9.47;69.09;101138.91;5052757;28;20220;-72
2022/05/01 01:35:17;;;;;;;1.97;1.80;;;;;;;9.63;69.33;101145.03;5052620;28;20214;-72
2022/05/01 01:37:46;;;;;;;2.30;1.83;;;;;;;9.60;69.64;101145.63;5052373;28;20179;-72
2022/05/01 01:40:31;;;;;;;2.00;1.80;;;;;;;9.50;69.37;101146.53;5052501;28;20643;-72
2022/05/01 01:42:58;;;;;;;2.07;1.97;;;;;;;9.34;70.10;101153.22;5052344;28;20647;-73
2022/05/01 01:45:29;;;;;;;3.83;2.40;;;;;;;9.40;70.29;101149.31;5052421;28;20188;-72
2022/05/01 01:48:11;;;;;;;3.43;2.53;;;;;;;9.43;69.60;101149.59;5052148;28;20183;-72
2022/05/01 01:50:36;;;;;;;2.07;1.73;;;;;;;9.28;70.40;101151.63;5052410;28;20191;-73
2022/05/01 01:53:02;;;;;;;2.10;1.93;;;;;;;9.22;69.90;101140.75;5052279;28;20631;-73
2022/05/01 01:55:31;;;;;;;2.63;2.10;;;;;;;9.12;69.20;101146.31;5052074;28;20199;-72
2022/05/01 01:57:56;;;;;;;1.83;1.70;;;;;;;9.20;70.11;101148.41;5051937;28;20198;-72
2022/05/01 02:00:21;;;;;;;2.63;1.93;;;;;;;9.38;70.52;101160.53;5052272;28;20175;-73
2022/05/01 02:02:47;;;;;;;2.50;1.97;;;;;;;9.44;69.67;101151.22;5052119;28;20215;-72
2022/05/01 02:05:12;;;;;;;2.23;1.80;;;;;;;9.45;69.78;101152.84;5052078;28;20594;-72
2022/05/01 02:07:37;;;;;;;2.90;2.10;;;;;;;9.44;70.10;101147.69;5051688;28;20181;-72
2022/05/01 02:10:03;;;;;;;3.33;2.30;;;;;;;9.44;70.37;101153.13;5051946;28;20201;-73
2022/05/01 02:12:29;;;;;;;2.63;2.43;;;;;;;9.42;70.32;101147.16;5052242;28;20221;-72
2022/05/01 02:14:55;;;;;;;2.10;1.90;;;;;;;9.45;70.15;101139.22;5051825;28;20584;-72
2022/05/01 02:17:20;;;;;;;2.43;1.73;;;;;;;9.37;69.97;101144.44;5051798;28;20262;-72
2022/05/01 02:19:46;;;;;;;2.93;2.20;;;;;;;9.23;70.32;101139.66;5051790;28;20179;-73
2022/05/01 02:22:11;;;;;;;3.10;2.10;;;;;;;9.28;70.30;101136.09;5052209;28;20195;-72
2022/05/01 02:24:36;;;;;;;2.93;1.70;;;;;;;9.24;69.62;101135.00;5051656;28;20714;-73
2022/05/01 02:27:02;;;;;;;2.73;2.47;;;;;;;9.30;69.83;101144.78;5051488;28;20743;-72
2022/05/01 02:29:28;;;;;;;2.10;2.00;;;;;;;9.19;69.79;101135.06;5051762;28;20532;-73
2022/05/01 02:31:53;;;;;;;2.60;1.87;;;;;;;9.22;70.21;101138.03;5051443;28;20182;-72
2022/05/01 02:34:22;;;;;;;2.20;2.00;;;;;;;9.33;70.66;101135.22;5051381;28;20210;-72
2022/05/01 02:36:48;;;;;;;2.13;1.93;;;;;;;9.14;69.89;101129.66;5051419;28;20179;-73
2022/05/01 02:39:13;;;;;;;1.90;1.80;;;;;;;9.07;69.52;101123.72;5047138;28;20702;-73
2022/05/01 02:41:39;;;;;;;2.20;2.00;;;;;;;8.76;69.53;101120.38;5048154;28;20183;-72
2022/05/01 02:44:05;;;;;;;2.20;2.00;;;;;;;8.98;70.67;101126.25;5050039;28;20175;-72
2022/05/01 02:46:32;;;;;;;2.70;2.50;;;;;;;8.99;70.79;101124.34;5051382;28;20217;-72
2022/05/01 02:48:57;;;;;;;2.67;1.90;;;;;;;9.07;71.27;101126.44;5051120;28;20167;-73
2022/05/01 02:51:23;;;;;;;5.13;1.90;;;;;;;8.86;69.77;101128.50;5045113;28;20197;-72
2022/05/01 02:53:48;;;;;;;2.27;2.00;;;;;;;8.98;70.08;101128.97;5050097;28;20740;-73
2022/05/01 02:56:13;;;;;;;1.90;1.80;;;;;;;9.11;70.51;101124.75;5051628;28;20171;-71
2022/05/01 02:58:39;;;;;;;2.30;1.67;;;;;;;9.15;69.99;101126.66;5051403;28;20182;-72
2022/05/01 03:01:04;;;;;;;2.93;2.53;;;;;;;9.06;71.17;101127.53;5051385;28;20250;-72
2022/05/01 03:03:29;;;;;;;3.20;2.23;;;;;;;9.10;70.55;101123.13;5051695;28;20178;-72
2022/05/01 03:05:58;;;;;;;3.17;1.83;;;;;;;9.09;70.85;101124.22;5051418;28;20178;-73
2022/05/01 03:08:24;;;;;;;6.10;2.30;;;;;;;9.04;71.67;101121.56;5033151;28;20535;-72
2022/05/01 03:10:50;;;;;;;3.30;2.17;;;;;;;9.03;72.03;101122.66;5051365;28;20182;-72
2022/05/01 03:13:17;;;;;;;2.27;2.07;;;;;;;9.04;71.72;101125.09;5051254;28;20179;-72
2022/05/01 03:15:42;;;;;;;2.40;2.20;;;;;;;9.05;71.81;101120.47;5051344;28;20199;-73
2022/05/01 03:23:35;;;;;;;2.20;2.00;;;;;;;8.83;72.15;101121.72;5051504;28;20170;-72
2022/05/01 03:26:00;;;;;;;1.70;1.60;;;;;;;8.78;72.60;101120.91;5051463;28;20167;-73
2022/05/01 03:28:26;;;;;;;2.00;1.90;;;;;;;8.74;72.76;101119.88;5051500;28;20267;-73
2022/05/01 03:30:52;;;;;;;2.97;2.00;;;;;;;8.71;73.18;101118.53;5051034;28;20522;-72
2022/05/01 03:33:21;;;;;;;2.50;2.30;;;;;;;8.68;73.39;101112.81;5051010;28;20183;-74
2022/05/01 03:35:47;;;;;;;2.73;1.93;;;;;;;8.79;73.77;101117.91;5050949;28;20202;-72
2022/05/01 03:38:12;;;;;;;2.43;2.27;;;;;;;8.88;74.18;101113.50;5051085;28;20171;-73
2022/05/01 03:40:37;;;;;;;2.97;1.97;;;;;;;8.89;74.55;101106.13;5051006;28;20175;-73
2022/05/01 03:43:04;;;;;;;2.27;2.07;;;;;;;8.83;72.96;101119.00;5050741;28;20577;-73
2022/05/01 03:45:29;;;;;;;1.93;1.83;;;;;;;8.80;73.87;101103.19;5051142;28;20272;-74
2022/05/01 03:47:55;;;;;;;2.60;1.90;;;;;;;8.73;74.02;101115.50;5050911;28;20205;-74
2022/05/01 03:50:20;;;;;;;2.53;2.10;;;;;;;8.69;74.16;101118.00;5050811;28;20229;-72
2022/05/01 03:52:46;;;;;;;2.23;2.03;;;;;;;8.67;74.88;101109.25;5050852;28;20175;-72
2022/05/01 03:55:12;;;;;;;2.10;1.90;;;;;;;8.58;75.56;101109.06;5050177;28;20249;-72
2022/05/01 03:57:37;;;;;;;2.30;2.03;;;;;;;8.46;77.80;101114.03;5050509;28;20174;-73
2022/05/01 04:00:05;;;;;;;2.10;1.83;;;;;;;8.35;79.83;101109.72;5050573;28;20576;-72
2022/05/01 04:02:30;;;;;;;2.07;1.90;;;;;;;8.27;80.65;101121.19;5032594;28;20182;-74
2022/05/01 04:04:56;;;;;;;2.03;1.93;;;;;;;8.15;81.55;101110.59;5050643;28;20613;-73
2022/05/01 04:07:21;;;;;;;2.40;2.20;;;;;;;8.05;82.64;101113.38;5050404;28;20621;-72
2022/05/01 04:09:47;;;;;;;2.30;2.10;;;;;;;8.01;82.91;101124.00;5050626;28;20203;-73
2022/05/01 04:12:13;;;;;;;3.37;2.73;;;;;;;7.95;84.18;101118.84;5050532;28;20266;-72
2022/05/01 04:14:38;;;;;;;3.97;2.73;;;;;;;7.89;84.67;101115.31;5050511;28;20194;-73
2022/05/01 04:17:05;;;;;;;2.00;1.80;;;;;;;7.85;84.64;101116.16;5050418;28;20179;-72
2022/05/01 04:19:30;;;;;;;2.33;2.13;;;;;;;7.76;84.90;101122.16;5050444;28;20167;-73
2022/05/01 04:21:56;;;;;;;2.80;2.57;;;;;;;7.74;86.07;101127.06;5048085;28;20183;-72
2022/05/01 04:24:22;;;;;;;2.57;2.37;;;;;;;7.74;86.93;101121.63;5047818;28;20513;-73
2022/05/01 04:26:47;;;;;;;4.30;2.97;;;;;;;7.79;87.76;101125.41;5050226;28;20175;-73
2022/05/01 04:31:56;;;;;;;2.97;2.77;;;;;;;7.82;87.54;101122.97;5050341;28;20264;-74
2022/05/01 04:34:21;;;;;;;3.03;2.83;;;;;;;7.83;87.36;101123.78;5032399;28;20223;-72
2022/05/01 04:36:46;;;;;;;3.33;2.87;;;;;;;7.79;88.28;101120.78;5050223;28;20171;-73
2022/05/01 04:39:12;;;;;;;3.57;3.27;;;;;;;7.79;88.62;101117.25;5050174;28;20167;-72
2022/05/01 04:41:37;;;;;;;4.40;4.00;;;;;;;7.81;88.71;101120.50;5032283;28;20190;-72
2022/05/01 04:44:03;;;;;;;4.33;3.70;;;;;;;7.84;89.40;101118.06;5032364;28;20203;-72
2022/05/01 04:46:29;;;;;;;4.13;3.67;;;;;;;7.85;89.42;101124.31;5050197;28;20182;-73
2022/05/01 04:48:54;;;;;;;7.93;4.10;;;;;;;7.89;90.19;101128.13;5050303;28;20179;-73
2022/05/01 04:51:20;;;;;;;5.30;3.53;;;;;;;7.92;90.67;101124.84;5050424;28;20233;-73
2022/05/01 04:53:45;;;;;;;4.07;3.67;;;;;;;7.92;91.03;101124.84;5050500;28;20623;-72
2022/05/01 04:58:54;;;;;;;4.10;3.60;;;;;;;7.84;91.50;101139.03;5049951;28;20194;-73
2022/05/01 05:01:19;;;;;;;4.27;3.90;;;;;;;7.78;92.17;101132.75;5049626;28;20171;-73
2022/05/01 05:03:45;;;;;;;4.87;3.90;;;;;;;7.75;92.87;101136.84;5050031;28;20183;-72
2022/05/01 05:06:11;;;;;;;4.30;3.90;;;;;;;7.73;93.79;101139.03;5051658;28;20186;-73
2022/05/01 05:11:20;;;;;;;4.20;3.80;;;;;;;7.70;94.65;101141.50;5053712;28;20174;-75
2022/05/01 05:13:45;;;;;;;4.33;3.93;;;;;;;7.70;95.05;101142.31;5053697;28;20176;-72
2022/05/01 05:16:13;;;;;;;3.90;3.57;;;;;;;7.68;95.16;101149.13;5054782;28;20210;-73
2022/05/01 05:18:42;;;;;;;5.83;4.13;;;;;;;7.67;95.57;101148.31;5055908;28;20619;-72
2022/05/01 05:21:08;;;;;;;4.57;4.17;;;;;;;7.65;95.78;101150.47;5054232;28;20547;-72
2022/05/01 05:23:33;;;;;;;4.53;3.97;;;;;;;7.64;96.57;101148.81;5053388;28;20175;-72
2022/05/01 05:25:59;;;;;;;4.80;4.30;;;;;;;7.68;96.72;101155.38;5053426;28;20221;-72
2022/05/01 05:28:25;;;;;;;4.80;4.40;;;;;;;7.73;96.22;101154.53;5053393;28;20679;-72
2022/05/01 05:30:50;;;;;;;4.17;3.83;;;;;;;7.79;96.60;101158.88;5053510;28;20180;-72
2022/05/01 05:33:17;;;;;;;4.47;3.83;;;;;;;7.79;96.06;101152.59;5053516;28;20201;-73
2022/05/01 05:35:42;;;;;;;4.47;4.10;;;;;;;7.78;95.51;101157.25;5053061;28;20557;-72
2022/05/01 05:38:08;;;;;;;4.27;3.87;;;;;;;7.81;96.04;101161.31;5052904;28;20175;-73
2022/05/01 05:40:33;;;;;;;3.90;3.50;;;;;;;7.81;96.04;101161.31;5053403;28;20180;-72
2022/05/01 05:42:58;;;;;;;4.57;3.93;;;;;;;7.84;95.99;101155.34;5052830;28;20580;-73
2022/05/01 05:45:24;;;;;;;4.07;3.77;;;;;;;7.91;96.16;101151.22;5052991;28;20229;-72
2022/05/01 05:47:50;;;;;;;4.87;4.47;;;;;;;8.00;95.81;101156.94;5053039;28;20214;-72
2022/05/01 05:50:15;;;;;;;5.80;4.20;;;;;;;8.05;94.89;101155.00;5053101;28;20571;-74
2022/05/01 05:52:41;;;;;;;5.50;4.67;;;;;;;8.07;93.84;101157.44;5052778;28;20254;-73
2022/05/01 05:55:07;;;;;;;4.53;3.77;;;;;;;8.09;93.82;101157.16;5052682;28;20261;-72
2022/05/01 05:57:32;;;;;;;4.23;3.83;;;;;;;8.10;93.57;101159.63;5052567;28;20198;-72
2022/05/01 05:59:57;;;;;;;4.93;3.97;;;;;;;8.16;93.49;101168.56;5052557;28;20190;-73
2022/05/01 06:02:23;;;;;;;4.27;3.87;;;;;;;8.13;93.94;101167.22;5052187;28;20230;-72
2022/05/01 06:04:48;;;;;;;4.57;4.20;;;;;;;8.13;94.35;101163.69;5052581;28;20710;-72
2022/05/01 06:07:14;;;;;;;6.77;4.17;;;;;;;8.15;95.04;101173.22;5052479;28;20647;-74
2022/05/01 06:09:39;;;;;;;4.63;4.23;;;;;;;8.15;95.04;101166.94;5052477;28;20666;-72
2022/05/01 06:12:05;;;;;;;6.07;3.87;;;;;;;8.18;94.57;101169.13;5052435;28;20233;-72
2022/05/01 06:14:30;;;;;;;4.10;3.50;;;;;;;8.18;94.33;101177.28;5051759;28;20206;-72
2022/05/01 06:16:55;;;;;;;4.43;4.03;;;;;;;8.14;94.31;101171.59;5051322;28;20597;-72
2022/05/01 06:19:21;;;;;;;6.00;4.03;;;;;;;8.14;94.36;101174.31;5032354;28;20677;-74
2022/05/01 06:21:46;;;;;;;5.07;3.40;;;;;;;8.08;94.82;101172.66;5034669;28;20631;-74
2022/05/01 06:24:12;;;;;;;6.80;4.00;;;;;;;8.06;94.45;101180.31;5049446;28;20188;-72
2022/05/01 06:26:37;;;;;;;4.70;3.70;;;;;;;7.98;95.04;101189.03;5052130;28;20294;-72
2022/05/01 06:29:02;;;;;;;3.57;3.27;;;;;;;8.00;96.08;101173.25;5052317;28;20175;-72
2022/05/01 06:31:28;;;;;;;4.13;3.77;;;;;;;7.99;96.82;101182.50;5051877;28;20638;-74
2022/05/01 06:33:55;;;;;;;4.50;4.10;;;;;;;8.03;97.00;101178.94;5052040;28;20195;-72
2022/05/01 06:36:20;;;;;;;6.47;4.17;;;;;;;8.06;96.89;101188.47;5051795;28;20615;-72
2022/05/01 06:38:47;;;;;;;5.47;4.33;;;;;;;8.13;96.63;101180.03;5051992;28;20179;-72
2022/05/01 06:41:12;;;;;;;7.17;4.53;;;;;;;8.21;96.75;101177.53;5051777;28;20274;-73
2022/05/01 06:43:38;;;;;;;5.07;4.60;;;;;;;8.32;96.83;101184.56;5051758;28;20626;-73
2022/05/01 06:46:04;;;;;;;5.10;4.47;;;;;;;8.36;96.43;101184.84;5051799;28;20179;-73
2022/05/01 06:48:30;;;;;;;4.47;4.07;;;;;;;8.34;94.85;101184.31;5033582;28;20274;-72
2022/05/01 06:50:55;;;;;;;3.90;3.60;;;;;;;8.32;93.95;101181.03;5051992;28;20266;-72
2022/05/01 06:53:21;;;;;;;4.50;4.03;;;;;;;8.33;94.68;101183.47;5051876;28;20254;-73
2022/05/01 06:55:46;;;;;;;3.73;3.43;;;;;;;8.37;94.96;101181.03;5051501;28;20389;-72
2022/05/01 06:58:11;;;;;;;4.97;4.30;;;;;;;8.44;96.06;101183.47;5033533;28;20229;-73
2022/05/01 07:00:37;;;;;;;5.37;4.73;;;;;;;8.50;96.00;101185.88;5051234;28;20241;-73
2022/05/01 07:03:02;;;;;;;4.80;4.30;;;;;;;8.44;96.07;101176.13;5051474;28;20225;-73
2022/05/01 07:05:28;;;;;;;6.43;4.27;;;;;;;8.31;95.85;101176.69;5051389;28;20167;-73
2022/05/01 07:07:54;;;;;;;5.20;4.80;;;;;;;8.38;95.14;101185.38;5051299;28;20171;-72
2022/05/01 07:10:21;;;;;;;4.97;4.53;;;;;;;8.46;95.61;101186.75;5051308;28;20202;-72
2022/05/01 07:12:47;;;;;;;4.90;4.03;;;;;;;8.72;94.96;101188.25;5043458;28;20230;-73
2022/05/01 07:15:12;;;;;;;4.53;4.13;;;;;;;8.92;93.79;101184.59;5050047;28;20242;-72
2022/05/01 07:17:38;;;;;;;5.37;4.07;;;;;;;9.00;92.62;101189.47;5050001;28;20183;-73
2022/05/01 07:20:04;;;;;;;5.23;4.73;;;;;;;8.96;91.27;101188.38;5050665;28;20269;-73
2022/05/01 07:22:30;;;;;;;5.57;4.67;;;;;;;8.87;91.28;101195.53;5050601;28;20179;-72
2022/05/01 07:24:56;;;;;;;4.50;3.80;;;;;;;9.05;91.80;101192.13;5050648;28;20173;-72
2022/05/01 07:27:21;;;;;;;4.93;4.10;;;;;;;8.98;91.27;101188.94;5032638;28;20225;-75
2022/05/01 07:29:46;;;;;;;6.03;4.77;;;;;;;8.95;90.75;101181.28;5045210;28;20204;-72
2022/05/01 07:32:12;;;;;;;7.43;5.20;;;;;;;8.83;91.00;101187.09;5050700;28;20626;-73
2022/05/01 07:34:38;;;;;;;6.63;5.10;;;;;;;8.76;90.72;101185.78;5050864;28;20195;-73
2022/05/01 07:37:04;;;;;;;6.30;5.70;;;;;;;8.86;91.72;101192.00;5050731;28;20198;-73
2022/05/01 07:39:30;;;;;;;6.23;4.50;;;;;;;9.14;91.62;101187.72;5050600;28;20175;-73
2022/05/01 07:41:55;;;;;;;6.40;5.00;;;;;;;9.34;91.32;101184.03;5050822;28;20187;-73
2022/05/01 07:44:21;;;;;;;7.53;4.67;;;;;;;9.42;91.06;101193.53;5050783;28;20179;-73
2022/05/01 07:46:46;;;;;;;5.53;4.40;;;;;;;9.43;89.97;101185.03;5050636;28;20242;-73
2022/05/01 07:49:12;;;;;;;7.53;4.70;;;;;;;9.43;90.04;101192.41;5050741;28;20171;-72
2022/05/01 07:51:38;;;;;;;6.60;5.80;;;;;;;9.20;89.26;101193.94;5050745;28;20935;-73
2022/05/01 07:54:05;;;;;;;6.40;5.80;;;;;;;8.91;89.96;101191.94;5050913;28;20654;-72
2022/05/01 07:56:31;;;;;;;5.67;4.80;;;;;;;8.95;90.97;101184.00;5050677;28;20179;-73
2022/05/01 07:58:57;;;;;;;5.63;5.13;;;;;;;9.17;91.31;101194.50;5050585;28;20631;-73
2022/05/01 08:01:23;;;;;;;5.57;5.03;;;;;;;9.21;90.12;101192.84;5050507;28;20179;-74
2022/05/01 08:06:32;;;;;;;5.07;4.67;;;;;;;9.30;90.11;101198.53;5050573;28;20198;-72
2022/05/01 08:08:59;;;;;;;5.17;4.77;;;;;;;9.34;90.16;101194.94;5050353;28;20609;-73
2022/05/01 08:11:24;;;;;;;6.30;5.40;;;;;;;9.34;90.18;101184.03;5050494;28;20175;-72
2022/05/01 08:13:50;;;;;;;7.10;5.17;;;;;;;9.34;90.00;101189.47;5050463;28;20232;-73
2022/05/01 08:16:17;;;;;;;4.87;4.47;;;;;;;9.43;90.68;101189.69;5050416;28;20277;-73
2022/05/01 08:21:28;;;;;;;5.93;5.23;;;;;;;9.17;90.27;101199.97;5050427;28;20229;-72
2022/05/01 08:23:53;;;;;;;5.80;5.23;;;;;;;9.28;90.69;101200.72;5050379;28;20685;-74
2022/05/01 08:26:18;;;;;;;5.97;5.40;;;;;;;9.54;90.33;101197.47;5050478;28;20179;-73
2022/05/01 08:28:45;;;;;;;6.70;5.67;;;;;;;9.49;88.40;101197.53;5048101;28;20206;-72
2022/05/01 08:31:10;;;;;;;6.10;5.50;;;;;;;9.36;87.84;101195.44;5050055;28;20179;-73
2022/05/01 08:33:37;;;;;;;6.13;5.63;;;;;;;9.44;87.64;101196.78;5050261;28;20602;-75
2022/05/01 08:36:04;;;;;;;6.37;5.73;;;;;;;9.30;88.08;101204.78;5050456;28;20207;-73
2022/05/01 08:38:30;;;;;;;7.30;6.30;;;;;;;9.21;87.92;101201.03;5032009;28;20179;-75
2022/05/01 08:40:55;;;;;;;7.00;6.03;;;;;;;9.33;88.42;101206.13;5053074;28;20170;-73
2022/05/01 08:43:23;;;;;;;8.10;6.00;;;;;;;9.43;87.57;101198.69;5036045;28;20286;-82
2022/05/01 08:46:16;;;;;;;6.53;5.20;;;;;;;9.75;86.46;101210.97;5054014;28;20182;-77
2022/05/01 08:49:04;;;;;;;5.13;4.63;;;;;;;10.17;84.95;101215.72;5053807;28;20658;-73
2022/05/01 08:51:32;;;;;;;5.70;5.17;;;;;;;10.17;81.95;101214.91;5053909;28;20171;-72
2022/05/01 08:54:00;;;;;;;5.43;4.93;;;;;;;10.29;82.82;101212.63;5053942;28;20183;-72
2022/05/01 08:56:26;;;;;;;5.60;5.20;;;;;;;10.42;82.93;101211.94;5053724;28;20211;-75
2022/05/01 08:58:52;;;;;;;8.63;5.00;;;;;;;10.47;81.00;101216.53;5053548;28;20578;-72
2022/05/01 09:01:18;;;;;;;5.30;4.80;;;;;;;10.54;80.93;101212.31;5053140;28;20198;-73
2022/05/01 09:03:44;;;;;;;6.97;5.10;;;;;;;10.59;81.49;101220.47;5050631;28;20187;-72
2022/05/01 09:06:10;;;;;;;8.27;5.10;;;;;;;10.67;80.85;101214.34;5053810;28;20171;-72
2022/05/01 09:08:40;;;;;;;6.07;4.90;;;;;;;10.79;80.19;101219.38;5053454;28;20214;-74
2022/05/01 09:13:50;;;;;;;5.37;4.87;;;;;;;10.91;78.61;101217.03;5053663;28;20209;-73
2022/05/01 09:16:15;;;;;;;5.00;4.60;;;;;;;10.94;78.40;101215.63;5053451;28;20320;-73
2022/05/01 09:18:45;;;;;;;4.83;4.43;;;;;;;10.83;77.89;101220.41;5053384;28;20179;-76
2022/05/01 09:21:11;;;;;;;7.30;4.73;;;;;;;10.82;78.45;101213.31;5053414;28;20209;-74
2022/05/01 09:23:38;;;;;;;5.17;4.60;;;;;;;10.94;78.74;101212.88;5053299;28;20606;-75
2022/05/01 09:26:05;;;;;;;5.50;4.97;;;;;;;11.18;78.70;101210.09;5053253;28;20187;-74
2022/05/01 09:28:30;;;;;;;5.27;4.43;;;;;;;11.38;76.46;101207.03;5035221;28;20186;-73
2022/05/01 09:30:55;;;;;;;4.70;4.20;;;;;;;11.54;74.29;101219.34;5053250;28;20167;-73
2022/05/01 09:33:21;;;;;;;5.10;4.20;;;;;;;11.80;73.15;101210.75;5053252;28;20857;-72
2022/05/01 09:35:47;;;;;;;4.73;4.27;;;;;;;11.75;71.22;101208.91;5053219;28;20293;-72
2022/05/01 09:38:21;;;;;;;4.07;3.67;;;;;;;11.48;68.51;101215.09;5052853;28;20230;-75
2022/05/01 09:40:49;;;;;;;4.57;3.30;;;;;;;11.48;66.44;101212.34;5053123;28;20643;-73
2022/05/01 09:43:34;;;;;;;5.80;3.73;;;;;;;11.53;67.95;101222.41;5052972;28;20206;-73
2022/05/01 09:46:20;;;;;;;3.67;3.33;;;;;;;11.31;68.42;101220.28;5052987;28;20203;-72
2022/05/01 09:48:57;;;;;;;4.73;4.23;;;;;;;11.08;68.65;101219.25;5052870;28;20182;-73
2022/05/01 09:51:23;;;;;;;3.87;3.40;;;;;;;11.23;70.17;101221.75;5034216;28;20544;-74
2022/05/01 09:53:49;;;;;;;4.60;4.20;;;;;;;11.28;70.54;101218.97;5052772;28;20175;-73
2022/05/01 09:56:14;;;;;;;4.77;4.37;;;;;;;11.38;70.95;101219.91;5052526;28;20698;-72
2022/05/01 09:58:40;;;;;;;7.47;5.00;;;;;;;11.61;71.97;101214.31;5052675;28;20245;-72
2022/05/01 10:01:14;;;;;;;3.90;3.57;;;;;;;11.99;71.12;101221.63;5052745;28;20179;-72
2022/05/01 10:03:41;;;;;;;4.53;4.13;;;;;;;12.09;69.44;101218.72;5052964;28;20179;-72
2022/05/01 10:06:10;;;;;;;6.63;3.80;;;;;;;12.30;68.84;101211.75;5052691;28;20179;-72
2022/05/01 10:08:38;;;;;;;4.27;3.90;;;;;;;12.40;67.67;101217.00;5052515;28;20193;-74
2022/05/01 10:11:05;;;;;;;5.37;4.47;;;;;;;12.33;66.97;101211.13;5052615;28;20191;-72
2022/05/01 10:13:31;;;;;;;8.13;4.37;;;;;;;12.41;67.37;101210.41;5052463;28;20203;-72
2022/05/01 10:15:57;;;;;;;4.20;3.73;;;;;;;12.39;66.46;101212.66;5052653;28;20226;-72
2022/05/01 10:18:23;;;;;;;6.03;4.00;;;;;;;12.39;66.89;101206.34;5052285;28;20590;-72
2022/05/01 10:20:49;;;;;;;5.53;3.70;;;;;;;12.25;65.78;101200.88;5052314;28;20217;-72
2022/05/01 10:23:16;;;;;;;3.57;3.27;;;;;;;12.06;64.52;101205.63;5052593;28;20195;-72
2022/05/01 10:25:49;;;;;;;5.73;3.50;;;;;;;12.10;65.00;101193.75;5052294;28;20175;-72
2022/05/01 10:28:17;;;;;;;3.87;3.57;;;;;;;12.21;64.94;101197.13;5052020;28;20269;-72
2022/05/01 10:33:58;;;;;;;3.67;3.37;;;;;;;12.29;64.77;101190.91;5050176;28;20190;-72
2022/05/01 10:36:37;;;;;;;4.37;3.70;;;;;;;12.41;65.27;101196.72;5038318;28;20199;-72
2022/05/01 10:39:17;;;;;;;3.60;3.33;;;;;;;12.39;65.04;101190.72;5051659;28;20175;-73
2022/05/01 10:41:44;;;;;;;3.90;3.50;;;;;;;12.42;65.79;101192.03;5051834;28;20194;-72
2022/05/01 10:44:30;;;;;;;6.07;3.87;;;;;;;12.57;64.93;101188.16;5051797;28;20171;-73
2022/05/01 10:47:05;;;;;;;4.00;3.60;;;;;;;12.57;65.10;101179.94;5051998;28;20681;-72
2022/05/01 10:49:36;;;;;;;4.10;3.67;;;;;;;12.23;62.67;101180.38;5051895;28;20627;-71
2022/05/01 10:52:18;;;;;;;3.97;3.57;;;;;;;11.92;63.46;101178.22;5051773;28;20167;-73
2022/05/01 10:55:09;;;;;;;2.77;2.50;;;;;;;11.89;57.48;101168.69;5051639;28;20289;-73
2022/05/01 10:57:35;;;;;;;2.57;2.37;;;;;;;12.11;57.76;101175.41;5047620;28;20185;-72
2022/05/01 11:00:10;;;;;;;4.03;2.70;;;;;;;12.19;57.93;101175.50;5051730;28;20619;-73
2022/05/01 11:02:39;;;;;;;3.40;3.10;;;;;;;12.02;57.37;101167.09;5051144;28;20167;-72
2022/05/01 11:05:10;;;;;;;3.20;3.00;;;;;;;11.96;58.63;101162.81;5051146;28;20171;-75
2022/05/01 11:07:37;;;;;;;3.23;2.70;;;;;;;12.02;58.21;101161.63;5051031;28;20182;-74
2022/05/01 11:10:05;;;;;;;3.50;2.87;;;;;;;12.17;57.72;101160.50;5034134;28;20202;-73
2022/05/01 11:12:32;;;;;;;2.87;2.60;;;;;;;12.36;56.47;101161.19;5049857;28;20622;-73
2022/05/01 11:15:02;;;;;;;3.30;3.00;;;;;;;12.47;57.04;101151.66;5051280;28;20199;-72
2022/05/01 11:17:36;;;;;;;2.67;2.47;;;;;;;12.39;56.71;101151.53;5038576;28;20167;-74
2022/05/01 11:20:06;;;;;;;3.43;2.43;;;;;;;12.60;56.89;101146.47;5051498;28;20186;-73
2022/05/01 11:22:31;;;;;;;3.00;2.70;;;;;;;13.01;56.62;101151.81;5051112;28;20189;-73
2022/05/01 11:24:57;;;;;;;2.87;2.67;;;;;;;13.33;56.18;101148.88;5051164;28;20175;-73
2022/05/01 11:27:23;;;;;;;2.53;2.33;;;;;;;13.56;54.76;101149.66;5050964;28;20179;-73
2022/05/01 11:30:07;;;;;;;5.73;2.57;;;;;;;13.25;52.03;101146.88;5051154;28;20205;-75
2022/05/01 11:32:48;;;;;;;4.83;2.83;;;;;;;13.16;52.11;101142.41;5051030;28;20182;-75
2022/05/01 11:35:14;;;;;;;3.70;3.37;;;;;;;12.85;52.78;101151.34;5050911;28;20209;-74
2022/05/01 11:38:01;;;;;;;3.70;2.60;;;;;;;12.90;53.47;101142.22;5051129;28;20175;-72
2022/05/01 11:40:28;;;;;;;3.20;2.90;;;;;;;13.16;53.59;101145.16;5050861;28;20611;-73
2022/05/01 11:43:14;;;;;;;3.47;2.60;;;;;;;12.98;53.39;101138.72;5050375;28;20187;-72
2022/05/01 11:45:39;;;;;;;2.57;2.37;;;;;;;13.24;53.74;101148.00;5050526;28;20636;-72
2022/05/01 11:48:14;;;;;;;2.90;2.70;;;;;;;12.98;52.93;101138.72;5050215;28;20214;-72
2022/05/01 11:50:41;;;;;;;3.17;2.93;;;;;;;13.24;55.07;101136.22;5050477;28;20174;-72
2022/05/01 11:53:20;;;;;;;2.60;2.40;;;;;;;13.29;54.06;101130.59;5050273;28;20623;-73
2022/05/01 12:04:19;;;;;;;3.10;2.70;;;;;;;14.10;55.92;101122.94;5051270;28;20186;-72
2022/05/01 12:06:45;;;;;;;3.27;2.70;;;;;;;14.40;53.68;101120.41;5050660;28;20473;-72
2022/05/01 12:09:10;;;;;;;3.70;3.10;;;;;;;14.04;52.23;101118.72;5049976;28;20174;-73
2022/05/01 12:11:36;;;;;;;3.17;2.87;;;;;;;14.11;52.78;101110.00;5050387;28;20179;-72
2022/05/01 12:14:02;;;;;;;3.37;2.90;;;;;;;14.13;52.95;101115.97;5050259;28;20529;-72
2022/05/01 12:16:28;;;;;;;3.43;3.23;;;;;;;14.04;52.27;101115.97;5053936;28;20248;-72